Time;durP1;ratioP1;P1;durP2;ratioP2;P2;SDS_P1;SDS_P2;PMS_P1;PMS_P2;Temp;Humidity;BMP_temperature;BMP_pressure;BME280_temperature;BME280_humidity;BME280_pressure;Samples;Min_cycle;Max_cycle;Signal;HPM_P1;HPM_P2
2023/06/28 00:01:56;;;;;;;15.50;5.77;;;20.60;80.40;;;;;;5088417;27;20477;-60
2023/06/28 00:04:23;;;;;;;15.23;5.77;;;20.60;80.60;;;;;;5100986;27;20484;-62
2023/06/28 00:06:49;;;;;;;11.53;4.17;;;20.60;81.40;;;;;;5101063;27;20488;-61
2023/06/28 00:09:17;;;;;;;9.70;4.90;;;20.50;82.30;;;;;;5114466;27;20712;-61
2023/06/28 00:11:45;;;;;;;5.83;3.87;;;20.60;82.40;;;;;;5104397;27;21463;-61
2023/06/28 00:14:12;;;;;;;13.97;5.93;;;17.50;78.30;;;;;;5096387;27;20858;-62
2023/06/28 00:16:38;;;;;;;8.10;4.73;;;20.50;81.80;;;;;;5113867;27;20855;-60
2023/06/28 00:19:06;;;;;;;9.67;5.53;;;20.40;82.10;;;;;;5114985;27;21233;-61
2023/06/28 00:21:33;;;;;;;14.37;5.10;;;20.40;82.20;;;;;;5107369;27;20490;-61
2023/06/28 00:24:00;;;;;;;17.80;7.07;;;20.30;83.40;;;;;;5111602;27;21008;-60
2023/06/28 00:26:28;;;;;;;16.73;6.80;;;20.30;81.80;;;;;;5093623;27;20572;-62
2023/06/28 00:28:55;;;;;;;17.50;5.43;;;20.40;80.70;;;;;;5101249;27;20479;-61
2023/06/28 00:31:22;;;;;;;14.67;6.40;;;20.40;80.60;;;;;;5119477;27;20552;-61
2023/06/28 00:33:48;;;;;;;13.90;4.23;;;20.40;81.00;;;;;;5119252;27;20492;-61
2023/06/28 00:36:15;;;;;;;20.40;5.80;;;20.50;80.20;;;;;;5118453;27;20816;-62
2023/06/28 00:38:42;;;;;;;9.90;4.90;;;20.50;81.20;;;;;;5071695;27;20554;-61
2023/06/28 00:41:09;;;;;;;13.73;7.40;;;20.50;81.50;;;;;;5091483;27;20473;-61
2023/06/28 00:43:37;;;;;;;13.87;4.43;;;20.50;82.70;;;;;;5066628;27;20485;-61
2023/06/28 00:46:03;;;;;;;11.23;6.30;;;20.50;82.40;;;;;;5114382;27;20524;-62
2023/06/28 00:48:30;;;;;;;16.20;7.47;;;20.50;82.70;;;;;;5117831;27;20531;-61
2023/06/28 00:50:57;;;;;;;17.80;5.60;;;20.50;85.40;;;;;;5118413;27;20538;-60
2023/06/28 00:53:24;;;;;;;31.87;11.07;;;20.40;84.00;;;;;;5094772;27;20525;-61
2023/06/28 00:55:50;;;;;;;15.83;6.20;;;20.10;84.80;;;;;;5094438;27;20472;-60
2023/06/28 00:58:17;;;;;;;18.13;6.33;;;20.30;83.70;;;;;;5088557;27;20556;-60
2023/06/28 01:00:46;;;;;;;16.07;6.03;;;20.30;84.00;;;;;;5114365;27;20752;-61
2023/06/28 01:03:18;;;;;;;32.97;11.00;;;20.30;83.60;;;;;;5075705;27;20953;-60
2023/06/28 01:05:46;;;;;;;18.17;7.77;;;20.30;84.00;;;;;;5069563;27;21038;-61
2023/06/28 01:08:14;;;;;;;20.03;8.27;;;20.30;84.00;;;;;;5091712;27;20496;-62
2023/06/28 01:10:41;;;;;;;22.23;7.63;;;20.10;85.80;;;;;;5108063;27;20809;-61
2023/06/28 01:13:09;;;;;;;33.27;11.70;;;20.10;85.60;;;;;;5099980;27;20480;-61
2023/06/28 01:15:36;;;;;;;23.77;8.50;;;20.10;85.00;;;;;;5091955;27;20539;-60
2023/06/28 01:18:05;;;;;;;51.00;14.10;;;20.10;84.80;;;;;;5090851;27;20742;-60
2023/06/28 01:20:32;;;;;;;24.20;8.57;;;20.10;85.40;;;;;;5094900;27;20475;-61
2023/06/28 01:23:02;;;;;;;36.40;11.83;;;20.10;84.40;;;;;;5097360;27;20494;-59
2023/06/28 01:25:28;;;;;;;24.70;8.93;;;20.00;86.10;;;;;;5095342;27;20788;-62
2023/06/28 01:27:56;;;;;;;30.23;9.17;;;20.10;85.80;;;;;;5112603;27;20818;-61
2023/06/28 01:30:25;;;;;;;34.17;9.97;;;20.10;85.50;;;;;;5109966;27;20907;-61
2023/06/28 01:32:52;;;;;;;19.77;7.80;;;19.90;88.70;;;;;;5086984;27;20861;-62
2023/06/28 01:35:19;;;;;;;28.87;10.30;;;19.90;88.50;;;;;;5099370;27;21012;-61
2023/06/28 01:37:46;;;;;;;20.27;6.70;;;19.80;88.50;;;;;;5108679;27;20483;-61
2023/06/28 01:40:15;;;;;;;33.10;9.40;;;19.80;88.70;;;;;;5093567;27;20503;-61
2023/06/28 01:42:42;;;;;;;22.77;7.87;;;19.70;89.30;;;;;;5094348;27;20916;-61
2023/06/28 01:45:10;;;;;;;33.63;10.83;;;19.70;89.60;;;;;;5094912;27;20783;-61
2023/06/28 01:47:37;;;;;;;13.57;5.07;;;19.70;89.50;;;;;;5079181;27;20521;-60
2023/06/28 01:50:06;;;;;;;32.33;11.13;;;19.70;90.50;;;;;;5087539;27;20496;-60
2023/06/28 01:52:32;;;;;;;29.27;9.30;;;19.70;90.10;;;;;;5109088;27;20580;-60
2023/06/28 01:54:59;;;;;;;30.47;9.97;;;19.60;91.00;;;;;;5086725;27;20907;-61
2023/06/28 01:57:27;;;;;;;25.90;8.33;;;19.60;90.50;;;;;;5087513;27;20536;-61
2023/06/28 01:59:54;;;;;;;21.17;8.67;;;19.60;91.30;;;;;;5085033;27;20906;-61
2023/06/28 02:02:21;;;;;;;29.27;6.40;;;19.50;91.70;;;;;;5095741;27;20471;-61
2023/06/28 02:04:48;;;;;;;16.73;6.67;;;19.50;91.40;;;;;;5094953;27;20472;-60
2023/06/28 02:07:15;;;;;;;28.07;9.07;;;19.40;91.60;;;;;;5094100;27;20475;-61
2023/06/28 02:09:41;;;;;;;18.67;6.00;;;19.30;92.30;;;;;;5114377;27;20487;-61
2023/06/28 02:12:08;;;;;;;34.80;10.90;;;19.20;93.00;;;;;;5098311;27;20476;-61
2023/06/28 02:14:39;;;;;;;29.87;9.13;;;19.10;93.50;;;;;;5093561;28;20891;-61
2023/06/28 02:17:13;;;;;;;25.93;8.30;;;19.10;93.10;;;;;;5075834;28;20472;-61
2023/06/28 02:19:40;;;;;;;20.47;7.40;;;19.10;93.20;;;;;;5083852;28;20798;-61
2023/06/28 02:22:07;;;;;;;39.93;11.67;;;19.10;93.50;;;;;;5111292;27;20484;-61
2023/06/28 02:24:34;;;;;;;33.30;9.80;;;19.10;93.60;;;;;;5101895;27;20871;-61
2023/06/28 02:27:00;;;;;;;47.60;13.67;;;19.10;93.50;;;;;;5096114;27;20811;-61
2023/06/28 02:29:27;;;;;;;30.63;8.73;;;19.10;93.20;;;;;;5103775;27;20468;-61
2023/06/28 02:32:02;;;;;;;34.90;10.43;;;19.10;93.20;;;;;;5111134;27;20490;-61
2023/06/28 02:34:28;;;;;;;34.20;8.80;;;19.10;92.90;;;;;;5114510;27;20800;-61
2023/06/28 02:36:55;;;;;;;35.93;8.87;;;19.10;93.30;;;;;;5095568;27;21239;-61
2023/06/28 02:39:22;;;;;;;20.13;7.40;;;19.20;93.20;;;;;;5108515;27;20482;-61
2023/06/28 02:41:49;;;;;;;24.27;7.80;;;19.10;93.20;;;;;;5095987;27;20887;-60
2023/06/28 02:44:16;;;;;;;25.80;8.20;;;19.20;93.60;;;;;;5099694;27;20552;-61
2023/06/28 02:46:43;;;;;;;19.60;7.40;;;19.10;94.40;;;;;;5079912;28;21000;-61
2023/06/28 02:49:11;;;;;;;49.47;14.60;;;18.90;94.90;;;;;;5091428;27;20490;-60
2023/06/28 02:51:37;;;;;;;21.90;6.60;;;18.80;95.40;;;;;;5110555;27;20991;-60
2023/06/28 02:54:04;;;;;;;44.83;14.33;;;18.60;95.70;;;;;;5099618;27;20606;-61
2023/06/28 02:56:31;;;;;;;20.90;8.10;;;18.60;96.10;;;;;;5092287;28;20477;-61
2023/06/28 02:58:57;;;;;;;36.23;10.47;;;18.70;95.40;;;;;;5056222;27;20480;-60
2023/06/28 03:01:25;;;;;;;24.23;8.63;;;18.70;95.30;;;;;;5106343;27;20480;-60
2023/06/28 03:03:52;;;;;;;25.10;9.07;;;18.80;95.40;;;;;;5100708;27;20487;-60
2023/06/28 03:06:20;;;;;;;31.97;9.47;;;18.80;95.50;;;;;;5093612;27;20498;-61
2023/06/28 03:08:47;;;;;;;16.30;6.70;;;18.80;95.90;;;;;;5069997;27;20491;-60
2023/06/28 03:11:13;;;;;;;38.57;12.70;;;18.70;96.40;;;;;;5099925;27;20481;-62
2023/06/28 03:13:41;;;;;;;21.97;7.57;;;18.60;97.00;;;;;;5094976;27;20481;-60
2023/06/28 03:16:08;;;;;;;41.70;13.37;;;18.60;97.20;;;;;;5106177;27;20854;-61
2023/06/28 03:18:35;;;;;;;20.27;8.10;;;18.60;97.20;;;;;;5101981;27;20478;-61
2023/06/28 03:21:02;;;;;;;37.43;11.97;;;18.40;97.50;;;;;;5082895;27;20575;-60
2023/06/28 03:23:30;;;;;;;23.10;8.30;;;18.40;98.00;;;;;;5113870;27;20475;-61
2023/06/28 03:25:56;;;;;;;32.97;10.90;;;18.30;97.90;;;;;;5109976;27;20483;-61
2023/06/28 03:28:23;;;;;;;26.10;8.27;;;18.30;98.40;;;;;;5114715;27;20834;-61
2023/06/28 03:30:57;;;;;;;27.47;9.33;;;18.20;98.80;;;;;;5109509;27;21023;-60
2023/06/28 03:33:24;;;;;;;18.43;7.67;;;18.20;98.30;;;;;;5117595;27;20733;-60
2023/06/28 03:35:51;;;;;;;23.23;7.37;;;18.30;97.60;;;;;;5116067;27;20502;-61
2023/06/28 03:38:17;;;;;;;21.93;7.67;;;18.40;97.40;;;;;;5107660;27;20683;-60
2023/06/28 03:40:46;;;;;;;22.43;8.37;;;18.50;97.00;;;;;;5112837;27;20491;-60
2023/06/28 03:43:12;;;;;;;24.17;8.37;;;18.60;96.60;;;;;;5100656;27;20507;-61
2023/06/28 03:45:39;;;;;;;15.67;7.40;;;18.70;96.80;;;;;;5101225;27;20484;-60
2023/06/28 03:48:06;;;;;;;48.17;13.83;;;18.80;96.80;;;;;;5085485;27;20482;-60
2023/06/28 03:50:33;;;;;;;23.67;8.17;;;18.80;96.70;;;;;;5117342;27;20483;-61
2023/06/28 03:53:00;;;;;;;29.23;9.93;;;18.80;96.50;;;;;;5117695;27;21247;-61
2023/06/28 03:55:29;;;;;;;20.33;7.33;;;18.80;96.40;;;;;;5094506;27;20576;-61
2023/06/28 03:57:57;;;;;;;29.17;9.47;;;18.90;96.10;;;;;;5100203;27;20492;-61
2023/06/28 04:00:24;;;;;;;24.10;9.10;;;18.90;96.20;;;;;;5110982;27;20484;-60
2023/06/28 04:02:50;;;;;;;25.20;7.87;;;18.90;96.00;;;;;;5113232;27;20484;-61
2023/06/28 04:05:17;;;;;;;23.57;9.20;;;18.90;96.20;;;;;;5110999;27;20716;-61
2023/06/28 04:07:44;;;;;;;24.70;9.10;;;19.00;96.20;;;;;;5115524;27;20480;-61
2023/06/28 04:10:11;;;;;;;36.33;12.03;;;;;;;;;;5108678;27;21014;-60
2023/06/28 04:12:38;;;;;;;14.80;7.07;;;19.00;96.00;;;;;;5069760;27;20871;-61
2023/06/28 04:15:08;;;;;;;43.03;13.20;;;19.10;96.20;;;;;;5100331;27;20468;-60
2023/06/28 04:17:35;;;;;;;27.83;8.20;;;19.10;96.00;;;;;;5087468;27;20515;-61
2023/06/28 04:20:04;;;;;;;40.60;13.03;;;19.10;96.20;;;;;;5094262;27;20478;-61
2023/06/28 04:22:31;;;;;;;24.13;7.93;;;19.10;96.20;;;;;;5107802;27;20837;-60
2023/06/28 04:24:58;;;;;;;30.67;10.97;;;19.10;96.10;;;;;;5091268;27;20538;-60
2023/06/28 04:27:25;;;;;;;24.93;9.80;;;19.10;96.10;;;;;;5102659;27;20899;-60
2023/06/28 04:29:52;;;;;;;27.73;9.87;;;19.20;96.10;;;;;;5090275;27;20724;-60
2023/06/28 04:32:24;;;;;;;18.73;8.17;;;19.10;96.50;;;;;;5083156;27;20475;-60
2023/06/28 04:34:53;;;;;;;33.13;11.70;;;19.10;96.70;;;;;;5104845;27;20479;-60
2023/06/28 04:37:19;;;;;;;27.73;8.90;;;19.10;96.60;;;;;;5110732;27;20892;-61
2023/06/28 04:39:46;;;;;;;22.40;6.93;;;18.90;97.60;;;;;;5113665;27;20472;-61
2023/06/28 04:42:14;;;;;;;31.00;9.87;;;18.80;97.80;;;;;;5047829;27;20697;-60
2023/06/28 04:44:41;;;;;;;19.63;8.23;;;18.80;97.60;;;;;;5108014;27;20516;-60
2023/06/28 04:47:08;;;;;;;36.50;12.00;;;18.90;97.20;;;;;;5109051;27;20984;-61
2023/06/28 04:49:37;;;;;;;21.13;8.30;;;18.90;97.10;;;;;;5115570;27;20772;-61
2023/06/28 04:52:04;;;;;;;49.50;15.90;;;18.90;97.30;;;;;;5115975;27;20851;-61
2023/06/28 04:54:31;;;;;;;26.67;9.70;;;18.80;97.90;;;;;;5064174;28;20857;-61
2023/06/28 04:56:57;;;;;;;36.73;11.67;;;18.70;98.50;;;;;;5098018;27;20480;-60
2023/06/28 04:59:24;;;;;;;25.80;9.13;;;18.60;99.00;;;;;;5111378;27;20486;-60
2023/06/28 05:01:51;;;;;;;23.67;7.70;;;17.00;98.10;;;;;;5102305;27;20484;-60
2023/06/28 05:04:17;;;;;;;30.80;10.90;;;18.50;98.60;;;;;;5102909;27;20679;-60
2023/06/28 05:06:45;;;;;;;18.63;7.90;;;18.50;98.90;;;;;;5109073;27;20640;-60
2023/06/28 05:09:12;;;;;;;34.50;10.43;;;18.60;98.40;;;;;;5112222;27;20492;-60
2023/06/28 05:11:39;;;;;;;19.17;8.07;;;18.50;99.00;;;;;;5100845;27;20627;-61
2023/06/28 05:14:06;;;;;;;51.33;15.33;;;18.50;99.00;;;;;;5107153;27;20473;-61
2023/06/28 05:16:32;;;;;;;28.77;9.57;;;18.60;98.90;;;;;;5108696;27;20480;-61
2023/06/28 05:18:59;;;;;;;43.80;13.87;;;18.60;98.90;;;;;;5108833;27;20512;-60
2023/06/28 05:21:26;;;;;;;33.03;10.17;;;18.50;99.10;;;;;;5093900;27;20485;-61
2023/06/28 05:23:54;;;;;;;25.53;8.97;;;18.60;99.30;;;;;;5079780;27;20501;-61
2023/06/28 05:26:20;;;;;;;33.07;11.87;;;18.60;99.10;;;;;;5081928;27;20543;-60
2023/06/28 05:28:47;;;;;;;15.40;7.20;;;18.60;99.10;;;;;;5085826;27;20554;-60
2023/06/28 05:31:14;;;;;;;33.33;10.63;;;18.50;99.70;;;;;;5109634;27;20480;-60
2023/06/28 05:33:41;;;;;;;19.43;8.80;;;18.50;99.30;;;;;;5092817;27;21051;-60
2023/06/28 05:36:08;;;;;;;38.73;12.90;;;18.50;99.70;;;;;;5108165;27;21010;-61
2023/06/28 05:38:34;;;;;;;24.63;8.27;;;18.50;99.80;;;;;;5071983;27;20573;-60
2023/06/28 05:41:14;;;;;;;37.70;12.73;;;18.50;99.90;;;;;;5098192;27;20742;-60
2023/06/28 05:43:43;;;;;;;38.23;10.37;;;18.60;99.90;;;;;;5112259;27;20483;-61
2023/06/28 05:46:10;;;;;;;36.47;12.43;;;18.60;99.90;;;;;;5099680;27;20536;-60
2023/06/28 05:48:37;;;;;;;18.20;7.90;;;18.70;99.90;;;;;;5105730;27;20476;-60
2023/06/28 05:51:06;;;;;;;50.47;15.13;;;18.70;99.90;;;;;;5093697;27;20476;-60
2023/06/28 05:53:33;;;;;;;22.07;9.10;;;18.70;99.90;;;;;;5094021;27;20491;-60
2023/06/28 05:56:00;;;;;;;39.87;13.67;;;18.70;99.90;;;;;;5113469;27;20481;-60
2023/06/28 05:58:28;;;;;;;38.13;9.40;;;18.60;99.90;;;;;;5112383;27;20881;-60
2023/06/28 06:00:54;;;;;;;23.33;8.80;;;18.60;99.90;;;;;;5094049;27;20544;-61
2023/06/28 06:03:21;;;;;;;21.47;8.30;;;18.60;99.90;;;;;;5104393;27;20480;-61
2023/06/28 06:05:48;;;;;;;39.97;8.93;;;18.50;99.90;;;;;;5113565;27;20468;-60
2023/06/28 06:08:14;;;;;;;31.40;10.17;;;18.50;99.90;;;;;;5077295;27;20539;-60
2023/06/28 06:10:41;;;;;;;17.73;8.53;;;18.50;99.90;;;;;;5102339;27;20844;-60
2023/06/28 06:13:09;;;;;;;45.80;14.33;;;18.50;99.90;;;;;;5110680;27;20473;-60
2023/06/28 06:15:37;;;;;;;33.57;11.63;;;18.50;99.90;;;;;;5103120;27;20473;-61
2023/06/28 06:18:03;;;;;;;47.33;14.27;;;18.40;99.90;;;;;;5095207;27;20478;-61
2023/06/28 06:20:31;;;;;;;22.90;9.07;;;18.50;99.90;;;;;;5110588;27;20909;-61
2023/06/28 06:22:58;;;;;;;37.80;12.40;;;18.50;99.90;;;;;;5077955;27;20664;-60
2023/06/28 06:25:25;;;;;;;30.90;10.80;;;18.60;99.90;;;;;;5114096;27;20510;-60
2023/06/28 06:27:51;;;;;;;23.40;8.70;;;19.00;99.90;;;;;;5084257;27;20495;-60
2023/06/28 06:30:18;;;;;;;24.63;9.00;;;18.60;99.90;;;;;;5107978;27;20476;-61
2023/06/28 06:32:46;;;;;;;17.60;7.27;;;18.70;99.90;;;;;;5117586;27;21414;-60
2023/06/28 06:35:14;;;;;;;42.30;13.90;;;18.90;99.90;;;;;;5115741;27;20484;-60
2023/06/28 06:37:41;;;;;;;21.03;9.13;;;19.00;99.90;;;;;;5094971;27;20472;-60
2023/06/28 06:40:09;;;;;;;42.43;12.43;;;19.00;99.90;;;;;;5097968;27;20912;-60
2023/06/28 06:42:36;;;;;;;33.00;7.70;;;19.10;99.90;;;;;;5062294;28;20477;-60
2023/06/28 06:45:03;;;;;;;39.60;13.93;;;19.10;99.20;;;;;;5095122;27;20494;-60
2023/06/28 06:47:29;;;;;;;29.37;9.27;;;19.00;98.90;;;;;;5107181;27;21017;-60
2023/06/28 06:49:57;;;;;;;27.20;9.60;;;19.10;99.00;;;;;;5083497;27;20482;-60
2023/06/28 06:52:24;;;;;;;22.33;8.17;;;19.10;99.20;;;;;;5097259;27;20492;-60
2023/06/28 06:54:51;;;;;;;31.67;9.30;;;19.10;98.80;;;;;;5090259;27;20845;-60
2023/06/28 06:57:18;;;;;;;36.93;9.30;;;19.20;98.20;;;;;;5107608;27;20525;-60
2023/06/28 06:59:45;;;;;;;22.80;8.67;;;19.30;98.80;;;;;;5092862;27;20480;-60
2023/06/28 07:02:11;;;;;;;36.23;11.30;;;19.30;98.20;;;;;;5093088;27;20533;-60
2023/06/28 07:04:38;;;;;;;18.67;7.90;;;19.30;98.20;;;;;;5118332;27;20812;-60
2023/06/28 07:07:07;;;;;;;56.87;16.70;;;19.40;98.90;;;;;;5104468;27;21042;-61
2023/06/28 07:09:33;;;;;;;22.07;9.10;;;19.40;98.30;;;;;;5110927;27;20594;-60
2023/06/28 07:12:00;;;;;;;39.13;12.00;;;;;;;;;;5114607;27;20543;-61
2023/06/28 07:14:27;;;;;;;30.63;9.70;;;19.50;96.60;;;;;;5100743;27;20484;-61
2023/06/28 07:16:54;;;;;;;33.40;11.47;;;19.60;96.30;;;;;;5100519;27;20509;-61
2023/06/28 07:19:20;;;;;;;42.73;11.33;;;19.70;96.80;;;;;;5105236;27;20853;-61
2023/06/28 07:21:47;;;;;;;22.40;7.73;;;19.70;96.70;;;;;;5109439;27;20549;-61
2023/06/28 07:24:15;;;;;;;28.83;10.10;;;19.80;96.50;;;;;;5072257;27;20489;-61
2023/06/28 07:26:42;;;;;;;35.97;8.93;;;19.90;96.10;;;;;;5088205;27;20485;-61
2023/06/28 07:29:08;;;;;;;105.90;18.67;;;20.00;96.20;;;;;;5113216;27;20487;-61
2023/06/28 07:31:35;;;;;;;24.73;9.00;;;20.10;96.50;;;;;;5095507;27;20492;-61
2023/06/28 07:34:04;;;;;;;22.93;9.00;;;20.30;96.30;;;;;;5076788;27;21001;-61
2023/06/28 07:36:31;;;;;;;34.07;11.13;;;20.40;96.40;;;;;;5067088;27;20786;-61
2023/06/28 07:38:58;;;;;;;34.00;12.43;;;20.50;95.80;;;;;;5082876;27;20919;-61
2023/06/28 07:41:26;;;;;;;24.37;8.47;;;20.80;95.30;;;;;;5053788;28;20542;-61
2023/06/28 07:43:52;;;;;;;21.83;9.33;;;21.00;95.70;;;;;;5058999;28;20514;-61
2023/06/28 07:46:20;;;;;;;27.40;10.43;;;21.20;95.20;;;;;;5118216;27;21024;-61
2023/06/28 07:48:49;;;;;;;21.83;7.87;;;21.50;94.70;;;;;;5087343;27;20492;-62
2023/06/28 07:51:16;;;;;;;24.80;10.10;;;21.60;95.00;;;;;;5114929;27;20906;-62
2023/06/28 07:53:45;;;;;;;13.80;6.60;;;22.00;95.10;;;;;;5116683;27;20491;-62
2023/06/28 07:56:11;;;;;;;19.43;7.40;;;22.30;95.50;;;;;;5112595;27;20472;-62
2023/06/28 07:58:39;;;;;;;23.80;8.03;;;22.50;94.10;;;;;;5101226;27;20496;-61
2023/06/28 08:01:06;;;;;;;43.47;15.53;;;22.80;94.80;;;;;;5099308;27;20840;-62
2023/06/28 08:03:33;;;;;;;23.07;7.70;;;23.00;91.30;;;;;;5094002;27;20502;-61
2023/06/28 08:06:00;;;;;;;33.20;12.27;;;23.10;90.90;;;;;;5099942;27;20819;-61
2023/06/28 08:08:26;;;;;;;21.63;7.97;;;23.10;90.30;;;;;;5107110;27;20567;-62
2023/06/28 08:10:53;;;;;;;16.63;6.80;;;23.00;88.90;;;;;;5081444;27;20485;-61
2023/06/28 08:13:20;;;;;;;23.80;7.77;;;22.90;88.30;;;;;;5113098;27;20965;-61
2023/06/28 08:15:48;;;;;;;14.50;6.40;;;22.90;90.20;;;;;;5113537;27;20876;-61
2023/06/28 08:18:17;;;;;;;26.73;8.00;;;22.90;89.20;;;;;;5071906;27;20498;-61
2023/06/28 08:20:44;;;;;;;13.80;6.40;;;23.00;90.50;;;;;;5108745;27;20539;-60
2023/06/28 08:23:11;;;;;;;32.57;12.10;;;23.10;90.20;;;;;;5086366;27;20477;-61
2023/06/28 08:25:37;;;;;;;16.70;6.20;;;23.20;90.60;;;;;;5111264;27;20883;-61
2023/06/28 08:28:04;;;;;;;27.63;10.60;;;23.30;89.20;;;;;;5094066;27;20488;-61
2023/06/28 08:30:31;;;;;;;11.87;5.93;;;23.40;89.10;;;;;;5110073;27;20815;-61
2023/06/28 08:32:59;;;;;;;25.47;8.87;;;23.40;85.60;;;;;;5110521;27;20468;-60
2023/06/28 08:35:26;;;;;;;15.60;7.10;;;23.60;88.60;;;;;;5104353;27;20533;-61
2023/06/28 08:37:52;;;;;;;27.70;8.37;;;23.90;86.30;;;;;;5103937;27;20544;-61
2023/06/28 08:40:19;;;;;;;19.43;6.43;;;23.80;81.20;;;;;;5098089;27;20480;-61
2023/06/28 08:42:47;;;;;;;10.40;5.23;;;23.90;81.50;;;;;;5102344;27;20480;-60
2023/06/28 08:45:15;;;;;;;34.33;12.03;;;24.00;82.40;;;;;;5081347;27;20485;-61
2023/06/28 08:47:44;;;;;;;13.50;4.57;;;24.10;82.10;;;;;;5108444;27;20479;-61
2023/06/28 08:50:14;;;;;;;39.57;14.53;;;24.30;81.40;;;;;;5093240;27;20691;-61
2023/06/28 08:52:41;;;;;;;16.00;6.30;;;24.70;79.60;;;;;;5085093;27;20488;-62
2023/06/28 08:55:09;;;;;;;33.70;13.00;;;24.90;77.20;;;;;;5076084;27;20481;-61
2023/06/28 08:57:39;;;;;;;11.53;5.20;;;24.90;77.60;;;;;;5088417;27;20479;-62
2023/06/28 09:00:07;;;;;;;34.53;11.50;;;25.00;75.40;;;;;;5076141;27;20474;-61
2023/06/28 09:02:36;;;;;;;16.60;7.63;;;25.20;77.10;;;;;;5110302;27;20471;-61
2023/06/28 09:05:03;;;;;;;20.57;8.10;;;25.50;77.60;;;;;;5088832;27;20734;-62
2023/06/28 09:07:34;;;;;;;22.63;5.97;;;25.50;75.10;;;;;;5091555;27;20467;-61
2023/06/28 09:10:01;;;;;;;23.07;10.47;;;25.50;73.80;;;;;;5105192;27;20478;-61
2023/06/28 09:12:29;;;;;;;19.40;8.33;;;25.30;72.10;;;;;;5109025;27;20484;-61
2023/06/28 09:14:56;;;;;;;34.63;8.13;;;25.00;73.40;;;;;;5093866;27;20487;-61
2023/06/28 09:17:22;;;;;;;23.50;9.13;;;25.00;74.00;;;;;;5110487;27;20471;-61
2023/06/28 09:19:49;;;;;;;12.17;5.53;;;24.90;74.90;;;;;;5111572;27;20478;-60
2023/06/28 09:22:17;;;;;;;17.83;6.47;;;25.10;74.90;;;;;;5123884;27;20479;-61
2023/06/28 09:24:50;;;;;;;12.93;5.93;;;25.20;74.30;;;;;;5120804;27;21048;-61
2023/06/28 09:27:16;;;;;;;19.60;9.40;;;25.00;75.00;;;;;;5093561;27;20494;-61
2023/06/28 09:29:43;;;;;;;10.20;4.70;;;24.90;75.00;;;;;;5119890;27;20494;-62
2023/06/28 09:32:10;;;;;;;30.93;12.53;;;24.90;73.60;;;;;;5103209;27;20466;-62
2023/06/28 09:34:37;;;;;;;16.50;6.90;;;24.80;72.50;;;;;;5112297;27;20479;-61
2023/06/28 09:37:06;;;;;;;21.60;9.70;;;24.80;74.60;;;;;;5103648;27;20653;-61
2023/06/28 09:39:37;;;;;;;19.60;8.53;;;24.80;73.20;;;;;;5106203;27;20476;-61
2023/06/28 09:42:06;;;;;;;36.87;12.30;;;24.70;73.70;;;;;;5102457;27;20527;-61
2023/06/28 09:44:32;;;;;;;22.53;8.03;;;24.80;73.90;;;;;;5121587;27;20533;-61
2023/06/28 09:47:05;;;;;;;31.97;12.57;;;24.90;72.30;;;;;;5101217;27;20989;-61
2023/06/28 09:49:33;;;;;;;24.27;7.47;;;25.10;76.00;;;;;;5079617;27;20911;-61
2023/06/28 09:52:01;;;;;;;27.20;11.03;;;25.40;76.50;;;;;;5083643;27;20510;-61
2023/06/28 09:54:32;;;;;;;22.53;9.00;;;25.60;73.60;;;;;;5080280;27;21048;-61
2023/06/28 09:56:59;;;;;;;22.70;7.00;;;25.60;68.60;;;;;;5090099;27;20480;-61
2023/06/28 09:59:32;;;;;;;22.50;10.17;;;25.60;71.00;;;;;;5109678;27;20528;-61
2023/06/28 10:01:59;;;;;;;19.90;8.93;;;25.70;71.40;;;;;;5062501;27;20522;-61
2023/06/28 10:04:29;;;;;;;18.00;8.23;;;25.60;71.60;;;;;;5079695;27;20682;-61
2023/06/28 10:07:00;;;;;;;18.50;9.10;;;25.70;72.00;;;;;;5094037;27;20505;-61
2023/06/28 10:09:33;;;;;;;32.10;8.90;;;25.60;71.20;;;;;;5113903;27;20603;-61
2023/06/28 10:12:02;;;;;;;22.43;9.30;;;25.60;71.20;;;;;;5082817;27;20954;-61
2023/06/28 10:14:35;;;;;;;23.90;8.23;;;25.60;72.40;;;;;;5070991;28;20521;-61
2023/06/28 10:17:02;;;;;;;28.77;12.67;;;25.20;72.40;;;;;;5116473;27;21024;-61
2023/06/28 10:19:30;;;;;;;20.30;7.77;;;25.20;74.20;;;;;;5109549;27;20489;-61
2023/06/28 10:21:57;;;;;;;22.73;7.43;;;25.20;71.00;;;;;;5050921;27;20490;-61
2023/06/28 10:24:24;;;;;;;17.63;8.17;;;25.10;71.30;;;;;;5092721;27;20721;-61
2023/06/28 10:26:51;;;;;;;15.37;6.90;;;25.20;72.40;;;;;;5119993;27;20471;-61
2023/06/28 10:29:20;;;;;;;18.57;7.90;;;25.30;71.90;;;;;;5121929;27;20479;-61
2023/06/28 10:31:49;;;;;;;14.57;6.33;;;25.40;72.70;;;;;;5103730;27;20483;-61
2023/06/28 10:34:16;;;;;;;13.23;6.00;;;25.40;71.80;;;;;;5104354;27;20558;-61
2023/06/28 10:36:43;;;;;;;14.13;5.77;;;25.50;72.10;;;;;;5094154;27;21325;-60
2023/06/28 10:39:10;;;;;;;28.23;11.00;;;25.60;71.60;;;;;;5119898;27;20528;-60
2023/06/28 10:41:38;;;;;;;16.17;7.20;;;25.60;70.60;;;;;;5116397;27;20567;-60
2023/06/28 10:44:05;;;;;;;20.10;7.90;;;25.60;72.30;;;;;;5114916;27;20468;-61
2023/06/28 10:46:33;;;;;;;26.37;10.43;;;25.70;72.80;;;;;;5118330;27;20493;-60
2023/06/28 10:49:03;;;;;;;33.50;12.57;;;25.80;72.60;;;;;;5073193;27;20477;-61
2023/06/28 10:51:31;;;;;;;22.40;7.20;;;25.90;73.00;;;;;;5110214;27;21342;-62
2023/06/28 10:54:09;;;;;;;20.93;8.47;;;25.80;71.60;;;;;;5094031;27;20472;-61
2023/06/28 10:56:37;;;;;;;25.20;8.90;;;25.80;71.00;;;;;;5102171;27;20510;-61
2023/06/28 10:59:08;;;;;;;39.63;14.60;;;25.80;70.80;;;;;;5116197;27;20488;-62
2023/06/28 11:01:40;;;;;;;19.63;7.17;;;25.90;73.00;;;;;;5120789;27;20471;-62
2023/06/28 11:04:22;;;;;;;16.60;7.03;;;25.90;71.80;;;;;;5118491;27;20468;-61
2023/06/28 11:06:49;;;;;;;12.50;5.97;;;26.10;72.30;;;;;;5113068;27;20480;-61
2023/06/28 11:09:17;;;;;;;18.70;7.63;;;26.20;72.50;;;;;;5098200;27;20479;-61
2023/06/28 11:11:55;;;;;;;12.40;6.10;;;26.20;71.60;;;;;;5100471;27;20498;-61
2023/06/28 11:14:23;;;;;;;22.23;9.07;;;26.20;70.00;;;;;;5096989;27;20770;-62
2023/06/28 11:16:51;;;;;;;7.33;3.90;;;26.20;70.70;;;;;;5111307;27;20876;-61
2023/06/28 11:19:22;;;;;;;8.20;4.50;;;26.30;72.30;;;;;;5106433;27;20476;-61
2023/06/28 11:21:55;;;;;;;8.90;4.10;;;26.40;71.00;;;;;;5073323;27;20482;-61
2023/06/28 11:24:44;;;;;;;17.70;7.90;;;26.20;69.20;;;;;;5079887;27;20489;-61
2023/06/28 11:27:12;;;;;;;26.60;9.50;;;26.10;68.80;;;;;;5094596;27;21065;-61
2023/06/28 11:29:56;;;;;;;12.67;5.80;;;27.30;69.90;;;;;;5083438;27;20477;-62
2023/06/28 11:32:28;;;;;;;15.87;6.80;;;26.10;69.60;;;;;;5089272;27;20519;-61
2023/06/28 11:34:58;;;;;;;24.90;9.47;;;26.00;71.40;;;;;;5088621;27;20851;-61
2023/06/28 11:37:25;;;;;;;18.23;7.30;;;25.90;70.20;;;;;;5067557;28;20541;-61
2023/06/28 11:39:52;;;;;;;15.83;4.67;;;25.90;70.30;;;;;;5095517;27;20491;-60
2023/06/28 11:42:19;;;;;;;16.97;7.33;;;25.90;71.60;;;;;;5112670;27;21041;-62
2023/06/28 11:44:47;;;;;;;12.60;6.10;;;25.90;69.70;;;;;;5113203;27;20468;-61
2023/06/28 11:47:14;;;;;;;16.93;6.30;;;25.90;71.70;;;;;;5095708;27;20464;-61
2023/06/28 11:49:42;;;;;;;14.20;6.57;;;26.00;71.30;;;;;;5102593;27;20857;-61
2023/06/28 11:52:11;;;;;;;20.50;8.70;;;26.10;71.90;;;;;;5096128;27;21143;-61
2023/06/28 11:54:38;;;;;;;12.77;5.67;;;26.10;72.10;;;;;;5102434;27;20495;-61
2023/06/28 11:57:05;;;;;;;27.53;10.80;;;26.10;70.90;;;;;;5100515;27;20478;-61
2023/06/28 11:59:31;;;;;;;40.93;7.13;;;26.20;71.40;;;;;;5098716;27;20480;-61
2023/06/28 12:02:03;;;;;;;21.07;7.87;;;26.30;70.30;;;;;;5111875;27;20906;-61
2023/06/28 12:04:31;;;;;;;11.57;5.77;;;26.10;68.30;;;;;;5096336;27;20699;-61
2023/06/28 12:07:01;;;;;;;28.43;6.00;;;26.20;68.60;;;;;;5086582;27;20491;-61
2023/06/28 12:09:30;;;;;;;6.20;4.57;;;26.20;68.90;;;;;;5115705;27;20494;-61
2023/06/28 12:11:59;;;;;;;4.47;3.60;;;26.30;71.30;;;;;;5079423;27;20468;-61
2023/06/28 12:14:27;;;;;;;11.23;4.10;;;26.40;69.90;;;;;;5098969;27;20496;-61
2023/06/28 12:16:54;;;;;;;11.63;4.73;;;26.50;68.90;;;;;;5103233;27;20495;-61
2023/06/28 12:19:26;;;;;;;8.00;3.87;;;26.60;68.10;;;;;;5113905;27;20490;-61
2023/06/28 12:21:54;;;;;;;13.60;3.83;;;26.70;69.30;;;;;;5112201;27;20482;-62
2023/06/28 12:24:24;;;;;;;8.10;4.17;;;26.70;69.00;;;;;;5115065;27;20483;-62
2023/06/28 12:26:54;;;;;;;5.80;3.50;;;26.90;70.00;;;;;;5102173;27;20455;-61
2023/06/28 12:29:23;;;;;;;8.80;4.40;;;27.00;69.10;;;;;;5116171;27;20951;-61
2023/06/28 12:31:52;;;;;;;8.30;4.10;;;27.00;67.70;;;;;;5113246;27;20520;-61
2023/06/28 12:34:26;;;;;;;9.90;4.87;;;27.00;67.60;;;;;;5116303;27;20562;-62
2023/06/28 12:36:55;;;;;;;8.67;5.10;;;27.10;68.60;;;;;;5117738;27;20535;-62
2023/06/28 12:39:23;;;;;;;11.20;6.43;;;27.10;67.80;;;;;;5115438;27;20476;-61